sensor_id;sensor_type;location;lat;lon;timestamp;P1;durP1;ratioP1;P2;durP2;ratioP2
8572;SDS011;4324;42.012;24.872;2023-08-20T00:01:05;8.83;;;8.03;;
8572;SDS011;4324;42.012;24.872;2023-08-20T00:03:33;8.93;;;8.23;;
8572;SDS011;4324;42.012;24.872;2023-08-20T00:06:01;10.03;;;8.40;;
8572;SDS011;4324;42.012;24.872;2023-08-20T00:08:29;8.50;;;7.70;;
8572;SDS011;4324;42.012;24.872;2023-08-20T00:10:56;8.27;;;7.67;;
8572;SDS011;4324;42.012;24.872;2023-08-20T00:13:23;9.57;;;8.57;;
8572;SDS011;4324;42.012;24.872;2023-08-20T00:15:50;8.47;;;7.77;;
8572;SDS011;4324;42.012;24.872;2023-08-20T00:18:19;8.30;;;7.57;;
8572;SDS011;4324;42.012;24.872;2023-08-20T00:20:46;8.63;;;7.93;;
8572;SDS011;4324;42.012;24.872;2023-08-20T00:23:13;8.30;;;7.70;;
8572;SDS011;4324;42.012;24.872;2023-08-20T00:25:41;8.90;;;8.20;;
8572;SDS011;4324;42.012;24.872;2023-08-20T00:28:10;8.93;;;8.10;;
8572;SDS011;4324;42.012;24.872;2023-08-20T00:30:37;9.20;;;8.40;;
8572;SDS011;4324;42.012;24.872;2023-08-20T00:33:04;8.10;;;7.53;;
8572;SDS011;4324;42.012;24.872;2023-08-20T00:35:32;8.60;;;7.90;;
8572;SDS011;4324;42.012;24.872;2023-08-20T00:37:59;8.27;;;7.60;;
8572;SDS011;4324;42.012;24.872;2023-08-20T00:40:26;9.00;;;8.30;;
8572;SDS011;4324;42.012;24.872;2023-08-20T00:42:53;8.73;;;7.90;;
8572;SDS011;4324;42.012;24.872;2023-08-20T00:45:20;9.10;;;8.30;;
8572;SDS011;4324;42.012;24.872;2023-08-20T00:47:48;8.63;;;7.90;;
8572;SDS011;4324;42.012;24.872;2023-08-20T00:50:15;8.77;;;8.07;;
8572;SDS011;4324;42.012;24.872;2023-08-20T00:52:45;7.80;;;7.10;;
8572;SDS011;4324;42.012;24.872;2023-08-20T00:55:12;9.00;;;8.10;;
8572;SDS011;4324;42.012;24.872;2023-08-20T00:57:40;8.97;;;8.17;;
8572;SDS011;4324;42.012;24.872;2023-08-20T01:00:08;8.83;;;8.00;;
8572;SDS011;4324;42.012;24.872;2023-08-20T01:02:36;9.30;;;8.47;;
8572;SDS011;4324;42.012;24.872;2023-08-20T01:05:05;8.17;;;7.47;;
8572;SDS011;4324;42.012;24.872;2023-08-20T01:07:36;8.83;;;7.93;;
8572;SDS011;4324;42.012;24.872;2023-08-20T01:10:11;8.37;;;7.67;;
8572;SDS011;4324;42.012;24.872;2023-08-20T01:12:43;8.80;;;8.10;;
8572;SDS011;4324;42.012;24.872;2023-08-20T01:15:12;9.70;;;8.30;;
8572;SDS011;4324;42.012;24.872;2023-08-20T01:17:40;8.63;;;8.00;;
8572;SDS011;4324;42.012;24.872;2023-08-20T01:20:08;8.40;;;7.80;;
8572;SDS011;4324;42.012;24.872;2023-08-20T01:22:46;9.03;;;8.23;;
8572;SDS011;4324;42.012;24.872;2023-08-20T01:25:30;8.43;;;7.73;;
8572;SDS011;4324;42.012;24.872;2023-08-20T01:31:00;9.33;;;8.50;;
8572;SDS011;4324;42.012;24.872;2023-08-20T01:33:28;8.60;;;7.90;;
8572;SDS011;4324;42.012;24.872;2023-08-20T01:35:56;8.77;;;8.10;;
8572;SDS011;4324;42.012;24.872;2023-08-20T01:38:23;9.50;;;8.70;;
8572;SDS011;4324;42.012;24.872;2023-08-20T01:40:50;9.30;;;8.50;;
8572;SDS011;4324;42.012;24.872;2023-08-20T01:43:17;8.90;;;8.10;;
8572;SDS011;4324;42.012;24.872;2023-08-20T01:45:45;8.57;;;7.87;;
8572;SDS011;4324;42.012;24.872;2023-08-20T01:48:12;9.53;;;8.73;;
8572;SDS011;4324;42.012;24.872;2023-08-20T01:50:39;9.20;;;8.50;;
8572;SDS011;4324;42.012;24.872;2023-08-20T01:53:06;8.67;;;7.97;;
8572;SDS011;4324;42.012;24.872;2023-08-20T01:55:34;14.23;;;9.03;;
8572;SDS011;4324;42.012;24.872;2023-08-20T01:58:01;9.13;;;8.43;;
8572;SDS011;4324;42.012;24.872;2023-08-20T02:00:29;8.80;;;8.10;;
8572;SDS011;4324;42.012;24.872;2023-08-20T02:02:57;9.23;;;8.40;;
8572;SDS011;4324;42.012;24.872;2023-08-20T02:05:24;9.07;;;8.27;;
8572;SDS011;4324;42.012;24.872;2023-08-20T02:07:51;8.90;;;8.20;;
8572;SDS011;4324;42.012;24.872;2023-08-20T02:10:18;9.40;;;8.30;;
8572;SDS011;4324;42.012;24.872;2023-08-20T02:12:46;9.00;;;8.30;;
8572;SDS011;4324;42.012;24.872;2023-08-20T02:15:15;10.03;;;9.13;;
8572;SDS011;4324;42.012;24.872;2023-08-20T02:17:42;8.83;;;8.13;;
8572;SDS011;4324;42.012;24.872;2023-08-20T02:20:11;8.90;;;8.00;;
8572;SDS011;4324;42.012;24.872;2023-08-20T02:22:38;8.63;;;7.93;;
8572;SDS011;4324;42.012;24.872;2023-08-20T02:25:05;9.13;;;8.23;;
8572;SDS011;4324;42.012;24.872;2023-08-20T02:27:33;9.63;;;8.83;;
8572;SDS011;4324;42.012;24.872;2023-08-20T02:30:03;9.07;;;8.27;;
8572;SDS011;4324;42.012;24.872;2023-08-20T02:32:31;8.73;;;7.93;;
8572;SDS011;4324;42.012;24.872;2023-08-20T02:34:58;8.60;;;7.90;;
8572;SDS011;4324;42.012;24.872;2023-08-20T02:37:27;9.10;;;8.30;;
8572;SDS011;4324;42.012;24.872;2023-08-20T02:39:54;8.97;;;8.27;;
8572;SDS011;4324;42.012;24.872;2023-08-20T02:42:21;10.33;;;8.20;;
8572;SDS011;4324;42.012;24.872;2023-08-20T02:44:48;9.43;;;8.50;;
8572;SDS011;4324;42.012;24.872;2023-08-20T02:47:15;9.60;;;8.60;;
8572;SDS011;4324;42.012;24.872;2023-08-20T02:49:42;8.90;;;8.10;;
8572;SDS011;4324;42.012;24.872;2023-08-20T02:52:09;9.50;;;8.70;;
8572;SDS011;4324;42.012;24.872;2023-08-20T02:54:37;8.70;;;8.00;;
8572;SDS011;4324;42.012;24.872;2023-08-20T02:57:04;8.83;;;8.03;;
8572;SDS011;4324;42.012;24.872;2023-08-20T02:59:31;9.97;;;9.17;;
8572;SDS011;4324;42.012;24.872;2023-08-20T03:01:59;8.70;;;8.07;;
8572;SDS011;4324;42.012;24.872;2023-08-20T03:04:27;8.70;;;7.90;;
8572;SDS011;4324;42.012;24.872;2023-08-20T03:06:54;9.63;;;8.77;;
8572;SDS011;4324;42.012;24.872;2023-08-20T03:09:22;9.43;;;8.63;;
8572;SDS011;4324;42.012;24.872;2023-08-20T03:11:50;9.80;;;8.90;;
8572;SDS011;4324;42.012;24.872;2023-08-20T03:14:17;8.73;;;8.03;;
8572;SDS011;4324;42.012;24.872;2023-08-20T03:16:44;9.50;;;8.80;;
8572;SDS011;4324;42.012;24.872;2023-08-20T03:19:11;8.37;;;7.67;;
8572;SDS011;4324;42.012;24.872;2023-08-20T03:21:40;8.97;;;8.27;;
8572;SDS011;4324;42.012;24.872;2023-08-20T03:24:07;9.00;;;8.20;;
8572;SDS011;4324;42.012;24.872;2023-08-20T03:26:34;9.00;;;8.30;;
8572;SDS011;4324;42.012;24.872;2023-08-20T03:29:03;9.40;;;8.60;;
8572;SDS011;4324;42.012;24.872;2023-08-20T03:31:31;9.17;;;8.47;;
8572;SDS011;4324;42.012;24.872;2023-08-20T03:33:58;8.90;;;8.20;;
8572;SDS011;4324;42.012;24.872;2023-08-20T03:36:25;9.53;;;8.53;;
8572;SDS011;4324;42.012;24.872;2023-08-20T03:38:52;8.80;;;8.00;;
8572;SDS011;4324;42.012;24.872;2023-08-20T03:41:19;8.90;;;8.30;;
8572;SDS011;4324;42.012;24.872;2023-08-20T03:43:46;8.80;;;8.20;;
8572;SDS011;4324;42.012;24.872;2023-08-20T03:46:14;9.03;;;8.23;;
8572;SDS011;4324;42.012;24.872;2023-08-20T03:48:41;9.27;;;8.47;;
8572;SDS011;4324;42.012;24.872;2023-08-20T03:51:08;9.90;;;9.00;;
8572;SDS011;4324;42.012;24.872;2023-08-20T03:53:35;9.30;;;8.50;;
8572;SDS011;4324;42.012;24.872;2023-08-20T03:56:02;8.40;;;7.80;;
8572;SDS011;4324;42.012;24.872;2023-08-20T03:58:29;9.10;;;8.40;;
8572;SDS011;4324;42.012;24.872;2023-08-20T04:00:56;9.20;;;8.50;;
8572;SDS011;4324;42.012;24.872;2023-08-20T04:03:24;9.43;;;8.60;;
8572;SDS011;4324;42.012;24.872;2023-08-20T04:05:51;9.43;;;8.47;;
8572;SDS011;4324;42.012;24.872;2023-08-20T04:08:18;9.47;;;8.50;;
8572;SDS011;4324;42.012;24.872;2023-08-20T04:10:45;9.37;;;8.43;;
8572;SDS011;4324;42.012;24.872;2023-08-20T04:13:12;9.57;;;8.73;;
8572;SDS011;4324;42.012;24.872;2023-08-20T04:16:04;8.33;;;7.63;;
8572;SDS011;4324;42.012;24.872;2023-08-20T04:18:37;9.30;;;8.50;;
8572;SDS011;4324;42.012;24.872;2023-08-20T04:21:03;9.60;;;8.80;;
8572;SDS011;4324;42.012;24.872;2023-08-20T04:23:30;8.87;;;8.10;;
8572;SDS011;4324;42.012;24.872;2023-08-20T04:25:57;9.27;;;8.13;;
8572;SDS011;4324;42.012;24.872;2023-08-20T04:28:24;9.27;;;8.50;;
8572;SDS011;4324;42.012;24.872;2023-08-20T04:30:51;8.77;;;7.97;;
8572;SDS011;4324;42.012;24.872;2023-08-20T04:33:19;9.37;;;8.57;;
8572;SDS011;4324;42.012;24.872;2023-08-20T04:35:48;9.13;;;8.43;;
8572;SDS011;4324;42.012;24.872;2023-08-20T04:38:16;9.40;;;8.60;;
8572;SDS011;4324;42.012;24.872;2023-08-20T04:40:45;8.93;;;8.10;;
8572;SDS011;4324;42.012;24.872;2023-08-20T04:43:12;9.57;;;8.73;;
8572;SDS011;4324;42.012;24.872;2023-08-20T04:45:43;9.67;;;8.77;;
8572;SDS011;4324;42.012;24.872;2023-08-20T04:48:10;8.93;;;8.13;;
8572;SDS011;4324;42.012;24.872;2023-08-20T04:50:37;9.10;;;8.30;;
8572;SDS011;4324;42.012;24.872;2023-08-20T04:53:05;8.93;;;8.23;;
8572;SDS011;4324;42.012;24.872;2023-08-20T04:55:35;9.10;;;8.30;;
8572;SDS011;4324;42.012;24.872;2023-08-20T04:58:02;9.10;;;8.40;;
8572;SDS011;4324;42.012;24.872;2023-08-20T05:00:29;10.83;;;9.93;;
8572;SDS011;4324;42.012;24.872;2023-08-20T05:03:15;12.97;;;11.77;;
8572;SDS011;4324;42.012;24.872;2023-08-20T05:05:47;9.70;;;9.00;;
8572;SDS011;4324;42.012;24.872;2023-08-20T05:08:16;9.37;;;8.57;;
8572;SDS011;4324;42.012;24.872;2023-08-20T05:10:43;11.03;;;10.20;;
8572;SDS011;4324;42.012;24.872;2023-08-20T05:13:10;11.47;;;10.30;;
8572;SDS011;4324;42.012;24.872;2023-08-20T05:15:54;9.33;;;8.63;;
8572;SDS011;4324;42.012;24.872;2023-08-20T05:18:21;8.57;;;7.87;;
8572;SDS011;4324;42.012;24.872;2023-08-20T05:20:48;9.13;;;8.33;;
8572;SDS011;4324;42.012;24.872;2023-08-20T05:23:27;10.00;;;9.00;;
8572;SDS011;4324;42.012;24.872;2023-08-20T05:26:02;8.67;;;8.07;;
8572;SDS011;4324;42.012;24.872;2023-08-20T05:28:29;9.00;;;8.20;;
8572;SDS011;4324;42.012;24.872;2023-08-20T05:30:56;9.07;;;8.30;;
8572;SDS011;4324;42.012;24.872;2023-08-20T05:33:25;8.93;;;8.23;;
8572;SDS011;4324;42.012;24.872;2023-08-20T05:35:52;8.80;;;8.00;;
8572;SDS011;4324;42.012;24.872;2023-08-20T05:38:19;8.83;;;8.13;;
8572;SDS011;4324;42.012;24.872;2023-08-20T05:40:48;9.00;;;8.20;;
8572;SDS011;4324;42.012;24.872;2023-08-20T05:43:15;9.17;;;8.47;;
8572;SDS011;4324;42.012;24.872;2023-08-20T05:45:44;9.23;;;8.53;;
8572;SDS011;4324;42.012;24.872;2023-08-20T05:48:11;9.23;;;8.47;;
8572;SDS011;4324;42.012;24.872;2023-08-20T05:50:38;8.43;;;7.60;;
8572;SDS011;4324;42.012;24.872;2023-08-20T05:53:05;9.33;;;8.50;;
8572;SDS011;4324;42.012;24.872;2023-08-20T05:55:32;8.93;;;8.13;;
8572;SDS011;4324;42.012;24.872;2023-08-20T05:58:00;8.70;;;8.00;;
8572;SDS011;4324;42.012;24.872;2023-08-20T06:00:28;8.80;;;8.10;;
8572;SDS011;4324;42.012;24.872;2023-08-20T06:02:55;11.13;;;8.13;;
8572;SDS011;4324;42.012;24.872;2023-08-20T06:05:22;9.70;;;8.70;;
8572;SDS011;4324;42.012;24.872;2023-08-20T06:07:49;10.53;;;8.43;;
8572;SDS011;4324;42.012;24.872;2023-08-20T06:10:30;9.60;;;8.77;;
8572;SDS011;4324;42.012;24.872;2023-08-20T06:13:27;9.13;;;8.33;;
8572;SDS011;4324;42.012;24.872;2023-08-20T06:15:57;10.03;;;9.23;;
8572;SDS011;4324;42.012;24.872;2023-08-20T06:18:29;9.17;;;8.40;;
8572;SDS011;4324;42.012;24.872;2023-08-20T06:21:04;9.43;;;8.63;;
8572;SDS011;4324;42.012;24.872;2023-08-20T06:23:36;9.30;;;8.60;;
8572;SDS011;4324;42.012;24.872;2023-08-20T06:26:03;9.43;;;8.63;;
8572;SDS011;4324;42.012;24.872;2023-08-20T06:28:31;9.20;;;8.50;;
8572;SDS011;4324;42.012;24.872;2023-08-20T06:30:58;10.47;;;9.50;;
8572;SDS011;4324;42.012;24.872;2023-08-20T06:33:25;9.73;;;8.87;;
8572;SDS011;4324;42.012;24.872;2023-08-20T06:35:53;9.40;;;8.50;;
8572;SDS011;4324;42.012;24.872;2023-08-20T06:38:23;8.23;;;7.63;;
8572;SDS011;4324;42.012;24.872;2023-08-20T06:40:53;8.73;;;8.03;;
8572;SDS011;4324;42.012;24.872;2023-08-20T06:43:20;9.30;;;8.60;;
8572;SDS011;4324;42.012;24.872;2023-08-20T06:45:55;9.70;;;9.00;;
8572;SDS011;4324;42.012;24.872;2023-08-20T06:48:23;10.07;;;9.20;;
8572;SDS011;4324;42.012;24.872;2023-08-20T06:50:53;10.80;;;9.80;;
8572;SDS011;4324;42.012;24.872;2023-08-20T06:53:22;9.23;;;8.43;;
8572;SDS011;4324;42.012;24.872;2023-08-20T06:56:09;9.40;;;8.60;;
8572;SDS011;4324;42.012;24.872;2023-08-20T06:58:53;14.80;;;10.03;;
8572;SDS011;4324;42.012;24.872;2023-08-20T07:04:09;21.33;;;11.23;;
8572;SDS011;4324;42.012;24.872;2023-08-20T07:06:48;64.30;;;16.23;;
8572;SDS011;4324;42.012;24.872;2023-08-20T07:09:18;16.00;;;9.90;;
8572;SDS011;4324;42.012;24.872;2023-08-20T07:11:45;15.60;;;11.25;;
8572;SDS011;4324;42.012;24.872;2023-08-20T07:14:12;12.90;;;11.23;;
8572;SDS011;4324;42.012;24.872;2023-08-20T07:16:41;9.88;;;8.98;;
8572;SDS011;4324;42.012;24.872;2023-08-20T07:19:08;8.77;;;8.07;;
8572;SDS011;4324;42.012;24.872;2023-08-20T07:21:35;9.30;;;8.57;;
8572;SDS011;4324;42.012;24.872;2023-08-20T07:24:03;8.82;;;8.10;;
8572;SDS011;4324;42.012;24.872;2023-08-20T07:26:30;11.60;;;10.60;;
8572;SDS011;4324;42.012;24.872;2023-08-20T07:28:57;10.43;;;9.63;;
8572;SDS011;4324;42.012;24.872;2023-08-20T07:31:25;12.20;;;11.10;;
8572;SDS011;4324;42.012;24.872;2023-08-20T07:33:58;10.77;;;9.90;;
8572;SDS011;4324;42.012;24.872;2023-08-20T07:36:27;11.80;;;10.60;;
8572;SDS011;4324;42.012;24.872;2023-08-20T07:38:54;11.25;;;10.32;;
8572;SDS011;4324;42.012;24.872;2023-08-20T07:41:28;12.05;;;11.00;;
8572;SDS011;4324;42.012;24.872;2023-08-20T07:43:55;15.23;;;13.80;;
8572;SDS011;4324;42.012;24.872;2023-08-20T07:46:22;15.98;;;13.07;;
8572;SDS011;4324;42.012;24.872;2023-08-20T07:48:54;17.10;;;15.45;;
8572;SDS011;4324;42.012;24.872;2023-08-20T07:51:39;11.10;;;10.07;;
8572;SDS011;4324;42.012;24.872;2023-08-20T07:54:26;12.07;;;11.07;;
8572;SDS011;4324;42.012;24.872;2023-08-20T07:56:58;12.40;;;11.20;;
8572;SDS011;4324;42.012;24.872;2023-08-20T07:59:28;15.10;;;12.37;;
8572;SDS011;4324;42.012;24.872;2023-08-20T08:02:12;14.88;;;11.77;;
8572;SDS011;4324;42.012;24.872;2023-08-20T08:05:00;16.77;;;11.70;;
8572;SDS011;4324;42.012;24.872;2023-08-20T08:07:39;13.87;;;11.00;;
8572;SDS011;4324;42.012;24.872;2023-08-20T08:10:09;13.70;;;10.90;;
8572;SDS011;4324;42.012;24.872;2023-08-20T08:12:46;12.47;;;10.80;;
8572;SDS011;4324;42.012;24.872;2023-08-20T08:15:20;11.43;;;10.33;;
8572;SDS011;4324;42.012;24.872;2023-08-20T08:17:47;11.13;;;10.13;;
8572;SDS011;4324;42.012;24.872;2023-08-20T08:20:17;11.35;;;10.35;;
8572;SDS011;4324;42.012;24.872;2023-08-20T08:23:03;11.00;;;10.10;;
8572;SDS011;4324;42.012;24.872;2023-08-20T08:25:30;11.20;;;9.98;;
8572;SDS011;4324;42.012;24.872;2023-08-20T08:27:57;12.60;;;10.43;;
8572;SDS011;4324;42.012;24.872;2023-08-20T08:30:24;10.70;;;9.35;;
8572;SDS011;4324;42.012;24.872;2023-08-20T08:32:51;12.45;;;10.43;;
8572;SDS011;4324;42.012;24.872;2023-08-20T08:35:19;10.50;;;9.48;;
8572;SDS011;4324;42.012;24.872;2023-08-20T08:37:46;9.63;;;8.73;;
8572;SDS011;4324;42.012;24.872;2023-08-20T08:40:14;8.93;;;8.23;;
8572;SDS011;4324;42.012;24.872;2023-08-20T08:42:41;10.10;;;9.20;;
8572;SDS011;4324;42.012;24.872;2023-08-20T08:45:11;10.88;;;8.13;;
8572;SDS011;4324;42.012;24.872;2023-08-20T08:47:41;8.77;;;7.97;;
8572;SDS011;4324;42.012;24.872;2023-08-20T08:50:26;8.90;;;8.20;;
8572;SDS011;4324;42.012;24.872;2023-08-20T08:53:45;8.55;;;7.93;;
8572;SDS011;4324;42.012;24.872;2023-08-20T08:56:14;8.73;;;8.02;;
8572;SDS011;4324;42.012;24.872;2023-08-20T08:58:41;8.82;;;7.97;;
8572;SDS011;4324;42.012;24.872;2023-08-20T09:01:09;9.25;;;8.52;;
8572;SDS011;4324;42.012;24.872;2023-08-20T09:03:39;9.35;;;8.65;;
8572;SDS011;4324;42.012;24.872;2023-08-20T09:06:07;8.65;;;7.95;;
8572;SDS011;4324;42.012;24.872;2023-08-20T09:08:36;9.30;;;8.48;;
8572;SDS011;4324;42.012;24.872;2023-08-20T09:11:06;9.52;;;8.82;;
8572;SDS011;4324;42.012;24.872;2023-08-20T09:13:48;9.93;;;9.18;;
8572;SDS011;4324;42.012;24.872;2023-08-20T09:16:16;8.95;;;8.15;;
8572;SDS011;4324;42.012;24.872;2023-08-20T09:18:46;8.90;;;8.20;;
8572;SDS011;4324;42.012;24.872;2023-08-20T09:21:13;8.52;;;7.88;;
8572;SDS011;4324;42.012;24.872;2023-08-20T09:23:44;9.20;;;8.40;;
8572;SDS011;4324;42.012;24.872;2023-08-20T09:26:16;10.07;;;9.07;;
8572;SDS011;4324;42.012;24.872;2023-08-20T09:28:45;8.80;;;8.07;;
8572;SDS011;4324;42.012;24.872;2023-08-20T09:31:13;8.82;;;8.13;;
8572;SDS011;4324;42.012;24.872;2023-08-20T09:33:49;8.63;;;7.95;;
8572;SDS011;4324;42.012;24.872;2023-08-20T09:36:17;9.77;;;8.05;;
8572;SDS011;4324;42.012;24.872;2023-08-20T09:38:44;7.75;;;7.25;;
8572;SDS011;4324;42.012;24.872;2023-08-20T09:41:11;7.57;;;6.97;;
8572;SDS011;4324;42.012;24.872;2023-08-20T09:43:40;8.70;;;7.35;;
8572;SDS011;4324;42.012;24.872;2023-08-20T09:46:10;7.68;;;7.18;;
8572;SDS011;4324;42.012;24.872;2023-08-20T09:48:38;8.18;;;7.55;;
8572;SDS011;4324;42.012;24.872;2023-08-20T09:51:11;7.40;;;6.90;;
8572;SDS011;4324;42.012;24.872;2023-08-20T09:53:44;8.02;;;7.22;;
8572;SDS011;4324;42.012;24.872;2023-08-20T09:56:15;9.30;;;8.50;;
8572;SDS011;4324;42.012;24.872;2023-08-20T09:58:49;8.25;;;7.43;;
8572;SDS011;4324;42.012;24.872;2023-08-20T10:01:17;7.88;;;7.28;;
8572;SDS011;4324;42.012;24.872;2023-08-20T10:03:44;8.10;;;7.40;;
8572;SDS011;4324;42.012;24.872;2023-08-20T10:06:12;8.18;;;7.57;;
8572;SDS011;4324;42.012;24.872;2023-08-20T10:08:38;8.18;;;7.47;;
8572;SDS011;4324;42.012;24.872;2023-08-20T10:11:05;7.97;;;7.28;;
8572;SDS011;4324;42.012;24.872;2023-08-20T10:13:32;7.75;;;7.15;;
8572;SDS011;4324;42.012;24.872;2023-08-20T10:16:01;8.52;;;7.70;;
8572;SDS011;4324;42.012;24.872;2023-08-20T10:18:31;7.70;;;7.15;;
8572;SDS011;4324;42.012;24.872;2023-08-20T10:21:01;8.10;;;7.43;;
8572;SDS011;4324;42.012;24.872;2023-08-20T10:23:28;7.78;;;7.18;;
8572;SDS011;4324;42.012;24.872;2023-08-20T10:25:56;8.00;;;7.40;;
8572;SDS011;4324;42.012;24.872;2023-08-20T10:28:33;8.50;;;7.70;;
8572;SDS011;4324;42.012;24.872;2023-08-20T10:31:05;8.10;;;7.50;;
8572;SDS011;4324;42.012;24.872;2023-08-20T10:33:34;8.40;;;7.70;;
8572;SDS011;4324;42.012;24.872;2023-08-20T10:36:08;8.05;;;7.45;;
8572;SDS011;4324;42.012;24.872;2023-08-20T10:38:37;7.65;;;7.15;;
8572;SDS011;4324;42.012;24.872;2023-08-20T10:41:07;8.95;;;7.30;;
8572;SDS011;4324;42.012;24.872;2023-08-20T10:43:35;7.80;;;7.18;;
8572;SDS011;4324;42.012;24.872;2023-08-20T10:46:06;8.50;;;7.82;;
8572;SDS011;4324;42.012;24.872;2023-08-20T10:48:35;7.80;;;7.20;;
8572;SDS011;4324;42.012;24.872;2023-08-20T10:51:07;8.15;;;7.50;;
8572;SDS011;4324;42.012;24.872;2023-08-20T10:53:38;8.95;;;7.50;;
8572;SDS011;4324;42.012;24.872;2023-08-20T10:56:12;8.27;;;7.63;;
8572;SDS011;4324;42.012;24.872;2023-08-20T10:58:41;8.13;;;7.50;;
8572;SDS011;4324;42.012;24.872;2023-08-20T11:01:17;8.35;;;7.55;;
8572;SDS011;4324;42.012;24.872;2023-08-20T11:03:46;7.25;;;6.80;;
8572;SDS011;4324;42.012;24.872;2023-08-20T11:06:14;7.88;;;7.20;;
8572;SDS011;4324;42.012;24.872;2023-08-20T11:08:41;7.40;;;6.88;;
8572;SDS011;4324;42.012;24.872;2023-08-20T11:11:08;7.93;;;6.53;;
8572;SDS011;4324;42.012;24.872;2023-08-20T11:13:36;7.60;;;6.95;;
8572;SDS011;4324;42.012;24.872;2023-08-20T11:16:08;7.20;;;6.60;;
8572;SDS011;4324;42.012;24.872;2023-08-20T11:18:37;7.85;;;7.10;;
8572;SDS011;4324;42.012;24.872;2023-08-20T11:21:04;7.47;;;6.88;;
8572;SDS011;4324;42.012;24.872;2023-08-20T11:23:31;7.70;;;7.10;;
8572;SDS011;4324;42.012;24.872;2023-08-20T11:26:00;7.70;;;7.20;;
8572;SDS011;4324;42.012;24.872;2023-08-20T11:28:27;7.18;;;6.60;;
8572;SDS011;4324;42.012;24.872;2023-08-20T11:30:54;8.32;;;7.57;;
8572;SDS011;4324;42.012;24.872;2023-08-20T11:33:22;7.78;;;7.13;;
8572;SDS011;4324;42.012;24.872;2023-08-20T11:35:52;7.63;;;7.05;;
8572;SDS011;4324;42.012;24.872;2023-08-20T11:38:21;7.68;;;7.10;;
8572;SDS011;4324;42.012;24.872;2023-08-20T11:40:49;7.80;;;7.18;;
8572;SDS011;4324;42.012;24.872;2023-08-20T11:43:16;7.05;;;6.50;;
8572;SDS011;4324;42.012;24.872;2023-08-20T11:45:44;7.47;;;6.88;;
8572;SDS011;4324;42.012;24.872;2023-08-20T11:48:12;7.35;;;6.85;;
8572;SDS011;4324;42.012;24.872;2023-08-20T11:50:39;7.28;;;6.78;;
8572;SDS011;4324;42.012;24.872;2023-08-20T11:53:09;7.50;;;6.78;;
8572;SDS011;4324;42.012;24.872;2023-08-20T11:55:37;7.70;;;6.90;;
8572;SDS011;4324;42.012;24.872;2023-08-20T11:58:04;7.55;;;6.95;;
8572;SDS011;4324;42.012;24.872;2023-08-20T12:00:31;7.82;;;7.13;;
8572;SDS011;4324;42.012;24.872;2023-08-20T12:02:58;7.47;;;6.90;;
8572;SDS011;4324;42.012;24.872;2023-08-20T12:05:28;7.53;;;6.93;;
8572;SDS011;4324;42.012;24.872;2023-08-20T12:07:56;7.18;;;6.53;;
8572;SDS011;4324;42.012;24.872;2023-08-20T12:10:25;7.70;;;7.00;;
8572;SDS011;4324;42.012;24.872;2023-08-20T12:12:54;7.40;;;6.90;;
8572;SDS011;4324;42.012;24.872;2023-08-20T12:15:22;6.93;;;6.50;;
8572;SDS011;4324;42.012;24.872;2023-08-20T12:18:00;8.10;;;7.50;;
8572;SDS011;4324;42.012;24.872;2023-08-20T12:20:30;7.45;;;6.88;;
8572;SDS011;4324;42.012;24.872;2023-08-20T12:22:58;7.47;;;6.70;;
8572;SDS011;4324;42.012;24.872;2023-08-20T12:25:29;7.20;;;6.60;;
8572;SDS011;4324;42.012;24.872;2023-08-20T12:27:56;7.35;;;6.85;;
8572;SDS011;4324;42.012;24.872;2023-08-20T12:30:23;7.38;;;6.68;;
8572;SDS011;4324;42.012;24.872;2023-08-20T12:32:50;7.50;;;6.90;;
8572;SDS011;4324;42.012;24.872;2023-08-20T12:35:20;7.43;;;6.70;;
8572;SDS011;4324;42.012;24.872;2023-08-20T12:37:48;7.20;;;6.65;;
8572;SDS011;4324;42.012;24.872;2023-08-20T12:40:15;7.10;;;6.60;;
8572;SDS011;4324;42.012;24.872;2023-08-20T12:42:43;8.65;;;6.95;;
8572;SDS011;4324;42.012;24.872;2023-08-20T12:45:10;7.47;;;6.97;;
8572;SDS011;4324;42.012;24.872;2023-08-20T12:47:38;7.40;;;6.80;;
8572;SDS011;4324;42.012;24.872;2023-08-20T12:50:06;6.53;;;6.03;;
8572;SDS011;4324;42.012;24.872;2023-08-20T12:52:33;9.23;;;7.05;;
8572;SDS011;4324;42.012;24.872;2023-08-20T12:55:00;7.28;;;6.63;;
8572;SDS011;4324;42.012;24.872;2023-08-20T12:57:28;8.25;;;7.55;;
8572;SDS011;4324;42.012;24.872;2023-08-20T12:59:56;7.40;;;6.90;;
8572;SDS011;4324;42.012;24.872;2023-08-20T13:02:24;7.30;;;6.80;;
8572;SDS011;4324;42.012;24.872;2023-08-20T13:04:52;7.68;;;6.97;;
8572;SDS011;4324;42.012;24.872;2023-08-20T13:07:19;8.13;;;7.15;;
8572;SDS011;4324;42.012;24.872;2023-08-20T13:09:47;7.85;;;7.18;;
8572;SDS011;4324;42.012;24.872;2023-08-20T13:12:14;7.80;;;6.90;;
8572;SDS011;4324;42.012;24.872;2023-08-20T13:14:45;7.75;;;7.07;;
8572;SDS011;4324;42.012;24.872;2023-08-20T13:17:14;7.35;;;6.75;;
8572;SDS011;4324;42.012;24.872;2023-08-20T13:19:41;7.72;;;7.22;;
8572;SDS011;4324;42.012;24.872;2023-08-20T13:22:08;9.05;;;8.05;;
8572;SDS011;4324;42.012;24.872;2023-08-20T13:24:35;7.22;;;6.72;;
8572;SDS011;4324;42.012;24.872;2023-08-20T13:27:02;8.05;;;7.32;;
8572;SDS011;4324;42.012;24.872;2023-08-20T13:29:30;8.50;;;7.80;;
8572;SDS011;4324;42.012;24.872;2023-08-20T13:31:57;7.88;;;7.28;;
8572;SDS011;4324;42.012;24.872;2023-08-20T13:34:26;8.30;;;7.50;;
8572;SDS011;4324;42.012;24.872;2023-08-20T13:36:53;7.40;;;6.75;;
8572;SDS011;4324;42.012;24.872;2023-08-20T13:39:20;6.97;;;6.47;;
8572;SDS011;4324;42.012;24.872;2023-08-20T13:41:48;7.10;;;6.50;;
8572;SDS011;4324;42.012;24.872;2023-08-20T13:44:15;7.53;;;6.75;;
8572;SDS011;4324;42.012;24.872;2023-08-20T13:46:42;8.20;;;7.50;;
8572;SDS011;4324;42.012;24.872;2023-08-20T13:49:09;7.45;;;6.82;;
8572;SDS011;4324;42.012;24.872;2023-08-20T13:51:38;7.53;;;6.93;;
8572;SDS011;4324;42.012;24.872;2023-08-20T13:54:04;7.18;;;6.55;;
8572;SDS011;4324;42.012;24.872;2023-08-20T13:56:31;7.50;;;6.75;;
8572;SDS011;4324;42.012;24.872;2023-08-20T13:58:58;7.30;;;6.63;;
8572;SDS011;4324;42.012;24.872;2023-08-20T14:01:25;7.13;;;6.45;;
8572;SDS011;4324;42.012;24.872;2023-08-20T14:03:52;7.82;;;7.13;;
8572;SDS011;4324;42.012;24.872;2023-08-20T14:06:19;7.80;;;7.15;;
8572;SDS011;4324;42.012;24.872;2023-08-20T14:08:48;7.57;;;6.95;;
8572;SDS011;4324;42.012;24.872;2023-08-20T14:11:15;7.65;;;7.05;;
8572;SDS011;4324;42.012;24.872;2023-08-20T14:13:42;7.78;;;7.07;;
8572;SDS011;4324;42.012;24.872;2023-08-20T14:16:10;8.25;;;7.63;;
8572;SDS011;4324;42.012;24.872;2023-08-20T14:18:37;7.50;;;6.90;;
8572;SDS011;4324;42.012;24.872;2023-08-20T14:21:04;8.45;;;7.75;;
8572;SDS011;4324;42.012;24.872;2023-08-20T14:23:31;7.60;;;7.05;;
8572;SDS011;4324;42.012;24.872;2023-08-20T14:25:59;7.60;;;6.93;;
8572;SDS011;4324;42.012;24.872;2023-08-20T14:28:26;7.72;;;7.13;;
8572;SDS011;4324;42.012;24.872;2023-08-20T14:30:53;8.18;;;7.40;;
8572;SDS011;4324;42.012;24.872;2023-08-20T14:33:21;7.55;;;7.00;;
8572;SDS011;4324;42.012;24.872;2023-08-20T14:35:48;8.23;;;7.53;;
8572;SDS011;4324;42.012;24.872;2023-08-20T14:38:16;7.53;;;7.03;;
8572;SDS011;4324;42.012;24.872;2023-08-20T14:40:43;7.68;;;6.75;;
8572;SDS011;4324;42.012;24.872;2023-08-20T14:43:11;7.57;;;6.85;;
8572;SDS011;4324;42.012;24.872;2023-08-20T14:45:38;8.02;;;7.38;;
8572;SDS011;4324;42.012;24.872;2023-08-20T14:48:05;8.07;;;6.95;;
8572;SDS011;4324;42.012;24.872;2023-08-20T14:50:33;7.50;;;6.80;;
8572;SDS011;4324;42.012;24.872;2023-08-20T14:53:01;7.22;;;6.63;;
8572;SDS011;4324;42.012;24.872;2023-08-20T14:55:29;7.68;;;7.07;;
8572;SDS011;4324;42.012;24.872;2023-08-20T14:57:56;7.72;;;7.00;;
8572;SDS011;4324;42.012;24.872;2023-08-20T15:00:24;7.45;;;6.85;;
8572;SDS011;4324;42.012;24.872;2023-08-20T15:02:51;10.52;;;7.20;;
8572;SDS011;4324;42.012;24.872;2023-08-20T15:05:18;8.05;;;7.45;;
8572;SDS011;4324;42.012;24.872;2023-08-20T15:07:49;7.75;;;6.85;;
8572;SDS011;4324;42.012;24.872;2023-08-20T15:10:16;7.43;;;6.85;;
8572;SDS011;4324;42.012;24.872;2023-08-20T15:12:43;7.72;;;7.18;;
8572;SDS011;4324;42.012;24.872;2023-08-20T15:15:11;7.82;;;7.13;;